sensor_id;sensor_type;location;lat;lon;timestamp;P1;durP1;ratioP1;P2;durP2;ratioP2
52940;SDS011;62001;53.366;6.636;2023-04-03T00:01:09;3.33;;;1.70;;
52940;SDS011;62001;53.366;6.636;2023-04-03T00:03:36;3.93;;;1.63;;
52940;SDS011;62001;53.366;6.636;2023-04-03T00:06:02;3.03;;;1.37;;
52940;SDS011;62001;53.366;6.636;2023-04-03T00:08:29;4.83;;;1.30;;
52940;SDS011;62001;53.366;6.636;2023-04-03T00:10:58;1.87;;;1.30;;
52940;SDS011;62001;53.366;6.636;2023-04-03T00:13:24;3.40;;;1.53;;
52940;SDS011;62001;53.366;6.636;2023-04-03T00:15:50;4.27;;;1.20;;
52940;SDS011;62001;53.366;6.636;2023-04-03T00:18:16;2.27;;;1.40;;
52940;SDS011;62001;53.366;6.636;2023-04-03T00:20:42;2.50;;;1.27;;
52940;SDS011;62001;53.366;6.636;2023-04-03T00:23:09;2.23;;;1.17;;
52940;SDS011;62001;53.366;6.636;2023-04-03T00:25:35;1.97;;;1.10;;
52940;SDS011;62001;53.366;6.636;2023-04-03T00:28:02;3.30;;;1.40;;
52940;SDS011;62001;53.366;6.636;2023-04-03T00:30:28;3.97;;;1.50;;
52940;SDS011;62001;53.366;6.636;2023-04-03T00:32:54;2.83;;;1.60;;
52940;SDS011;62001;53.366;6.636;2023-04-03T00:35:21;6.37;;;1.73;;
52940;SDS011;62001;53.366;6.636;2023-04-03T00:37:47;2.47;;;1.40;;
52940;SDS011;62001;53.366;6.636;2023-04-03T00:40:16;6.33;;;1.50;;
52940;SDS011;62001;53.366;6.636;2023-04-03T00:42:42;4.33;;;1.70;;
52940;SDS011;62001;53.366;6.636;2023-04-03T00:47:53;4.77;;;1.60;;
52940;SDS011;62001;53.366;6.636;2023-04-03T00:50:20;5.57;;;1.53;;
52940;SDS011;62001;53.366;6.636;2023-04-03T00:52:47;5.80;;;1.73;;
52940;SDS011;62001;53.366;6.636;2023-04-03T00:55:14;3.60;;;1.53;;
52940;SDS011;62001;53.366;6.636;2023-04-03T00:57:41;4.40;;;1.60;;
52940;SDS011;62001;53.366;6.636;2023-04-03T01:00:11;5.37;;;1.50;;
52940;SDS011;62001;53.366;6.636;2023-04-03T01:02:39;5.83;;;1.80;;
52940;SDS011;62001;53.366;6.636;2023-04-03T01:05:08;8.10;;;1.70;;
52940;SDS011;62001;53.366;6.636;2023-04-03T01:07:35;9.83;;;1.80;;
52940;SDS011;62001;53.366;6.636;2023-04-03T01:10:06;6.83;;;2.00;;
52940;SDS011;62001;53.366;6.636;2023-04-03T01:12:38;6.27;;;1.80;;
52940;SDS011;62001;53.366;6.636;2023-04-03T01:17:34;5.03;;;1.67;;
52940;SDS011;62001;53.366;6.636;2023-04-03T01:25:33;5.37;;;1.60;;
52940;SDS011;62001;53.366;6.636;2023-04-03T01:28:02;7.30;;;1.70;;
52940;SDS011;62001;53.366;6.636;2023-04-03T01:30:33;6.70;;;1.60;;
52940;SDS011;62001;53.366;6.636;2023-04-03T01:33:01;3.70;;;1.73;;
52940;SDS011;62001;53.366;6.636;2023-04-03T01:35:27;6.20;;;1.63;;
52940;SDS011;62001;53.366;6.636;2023-04-03T01:37:53;7.60;;;1.60;;
52940;SDS011;62001;53.366;6.636;2023-04-03T01:40:19;5.63;;;1.70;;
52940;SDS011;62001;53.366;6.636;2023-04-03T01:42:45;4.97;;;1.60;;
52940;SDS011;62001;53.366;6.636;2023-04-03T01:45:11;5.43;;;1.53;;
52940;SDS011;62001;53.366;6.636;2023-04-03T01:47:37;3.20;;;1.80;;
52940;SDS011;62001;53.366;6.636;2023-04-03T01:50:03;4.40;;;1.80;;
52940;SDS011;62001;53.366;6.636;2023-04-03T01:52:29;6.97;;;1.83;;
52940;SDS011;62001;53.366;6.636;2023-04-03T01:54:55;6.40;;;2.23;;
52940;SDS011;62001;53.366;6.636;2023-04-03T01:57:21;4.90;;;1.80;;
52940;SDS011;62001;53.366;6.636;2023-04-03T01:59:46;5.23;;;2.00;;
52940;SDS011;62001;53.366;6.636;2023-04-03T02:02:12;5.83;;;2.10;;
52940;SDS011;62001;53.366;6.636;2023-04-03T02:04:40;6.90;;;1.80;;
52940;SDS011;62001;53.366;6.636;2023-04-03T02:07:06;3.53;;;1.70;;
52940;SDS011;62001;53.366;6.636;2023-04-03T02:09:32;4.40;;;1.70;;
52940;SDS011;62001;53.366;6.636;2023-04-03T02:11:58;3.93;;;1.63;;
52940;SDS011;62001;53.366;6.636;2023-04-03T02:14:24;5.03;;;1.77;;
52940;SDS011;62001;53.366;6.636;2023-04-03T02:16:52;6.47;;;1.87;;
52940;SDS011;62001;53.366;6.636;2023-04-03T02:19:18;3.27;;;2.00;;
52940;SDS011;62001;53.366;6.636;2023-04-03T02:21:44;9.73;;;2.17;;
52940;SDS011;62001;53.366;6.636;2023-04-03T02:24:10;3.03;;;1.80;;
52940;SDS011;62001;53.366;6.636;2023-04-03T02:26:36;7.40;;;2.00;;
52940;SDS011;62001;53.366;6.636;2023-04-03T02:29:01;5.03;;;1.83;;
52940;SDS011;62001;53.366;6.636;2023-04-03T02:31:27;7.47;;;2.10;;
52940;SDS011;62001;53.366;6.636;2023-04-03T02:33:53;3.17;;;1.47;;
52940;SDS011;62001;53.366;6.636;2023-04-03T02:36:19;5.47;;;2.07;;
52940;SDS011;62001;53.366;6.636;2023-04-03T02:38:45;10.53;;;2.20;;
52940;SDS011;62001;53.366;6.636;2023-04-03T02:41:11;4.00;;;1.70;;
52940;SDS011;62001;53.366;6.636;2023-04-03T02:43:37;5.73;;;2.13;;
52940;SDS011;62001;53.366;6.636;2023-04-03T02:46:04;3.10;;;1.90;;
52940;SDS011;62001;53.366;6.636;2023-04-03T02:48:30;4.70;;;1.93;;
52940;SDS011;62001;53.366;6.636;2023-04-03T02:50:57;6.37;;;2.30;;
52940;SDS011;62001;53.366;6.636;2023-04-03T02:53:23;7.27;;;2.43;;
52940;SDS011;62001;53.366;6.636;2023-04-03T02:55:49;5.20;;;2.10;;
52940;SDS011;62001;53.366;6.636;2023-04-03T02:58:15;5.83;;;1.83;;
52940;SDS011;62001;53.366;6.636;2023-04-03T03:00:41;6.63;;;1.97;;
52940;SDS011;62001;53.366;6.636;2023-04-03T03:03:07;8.03;;;2.17;;
52940;SDS011;62001;53.366;6.636;2023-04-03T03:05:33;5.13;;;2.10;;
52940;SDS011;62001;53.366;6.636;2023-04-03T03:07:59;6.47;;;2.10;;
52940;SDS011;62001;53.366;6.636;2023-04-03T03:10:25;6.50;;;2.00;;
52940;SDS011;62001;53.366;6.636;2023-04-03T03:12:52;8.10;;;2.20;;
52940;SDS011;62001;53.366;6.636;2023-04-03T03:15:18;6.63;;;2.07;;
52940;SDS011;62001;53.366;6.636;2023-04-03T03:17:44;8.33;;;2.63;;
52940;SDS011;62001;53.366;6.636;2023-04-03T03:20:10;6.20;;;2.00;;
52940;SDS011;62001;53.366;6.636;2023-04-03T03:22:39;6.90;;;2.00;;
52940;SDS011;62001;53.366;6.636;2023-04-03T03:25:05;7.33;;;2.20;;
52940;SDS011;62001;53.366;6.636;2023-04-03T03:27:31;4.13;;;1.80;;
52940;SDS011;62001;53.366;6.636;2023-04-03T03:29:56;5.63;;;2.20;;
52940;SDS011;62001;53.366;6.636;2023-04-03T03:32:22;6.40;;;2.20;;
52940;SDS011;62001;53.366;6.636;2023-04-03T03:34:48;4.67;;;1.83;;
52940;SDS011;62001;53.366;6.636;2023-04-03T03:37:14;6.33;;;2.60;;
52940;SDS011;62001;53.366;6.636;2023-04-03T03:39:40;5.73;;;2.20;;
52940;SDS011;62001;53.366;6.636;2023-04-03T03:42:06;6.43;;;2.37;;
52940;SDS011;62001;53.366;6.636;2023-04-03T03:44:32;7.47;;;2.10;;
52940;SDS011;62001;53.366;6.636;2023-04-03T03:46:57;8.67;;;2.80;;
52940;SDS011;62001;53.366;6.636;2023-04-03T03:49:23;7.20;;;2.40;;
52940;SDS011;62001;53.366;6.636;2023-04-03T03:51:49;7.70;;;2.30;;
52940;SDS011;62001;53.366;6.636;2023-04-03T03:54:15;6.33;;;2.40;;
52940;SDS011;62001;53.366;6.636;2023-04-03T03:56:41;6.90;;;2.23;;
52940;SDS011;62001;53.366;6.636;2023-04-03T03:59:07;6.77;;;2.57;;
52940;SDS011;62001;53.366;6.636;2023-04-03T04:01:33;6.40;;;2.20;;
52940;SDS011;62001;53.366;6.636;2023-04-03T04:03:59;7.00;;;2.87;;
52940;SDS011;62001;53.366;6.636;2023-04-03T04:06:25;8.70;;;2.63;;
52940;SDS011;62001;53.366;6.636;2023-04-03T04:08:51;11.53;;;2.90;;
52940;SDS011;62001;53.366;6.636;2023-04-03T04:11:17;7.03;;;2.60;;
52940;SDS011;62001;53.366;6.636;2023-04-03T04:13:43;11.43;;;3.00;;
52940;SDS011;62001;53.366;6.636;2023-04-03T04:16:09;11.50;;;2.97;;
52940;SDS011;62001;53.366;6.636;2023-04-03T04:18:35;9.10;;;2.73;;
52940;SDS011;62001;53.366;6.636;2023-04-03T04:21:01;8.20;;;3.23;;
52940;SDS011;62001;53.366;6.636;2023-04-03T04:23:27;9.10;;;3.20;;
52940;SDS011;62001;53.366;6.636;2023-04-03T04:25:53;8.53;;;2.93;;
52940;SDS011;62001;53.366;6.636;2023-04-03T04:28:19;12.27;;;3.60;;
52940;SDS011;62001;53.366;6.636;2023-04-03T04:30:44;10.80;;;3.57;;
52940;SDS011;62001;53.366;6.636;2023-04-03T04:33:10;11.27;;;3.23;;
52940;SDS011;62001;53.366;6.636;2023-04-03T04:35:36;10.00;;;3.23;;
52940;SDS011;62001;53.366;6.636;2023-04-03T04:38:02;12.80;;;3.60;;
52940;SDS011;62001;53.366;6.636;2023-04-03T04:40:29;11.67;;;3.30;;
52940;SDS011;62001;53.366;6.636;2023-04-03T04:42:55;9.37;;;3.60;;
52940;SDS011;62001;53.366;6.636;2023-04-03T04:45:21;11.07;;;3.30;;
52940;SDS011;62001;53.366;6.636;2023-04-03T04:47:47;9.20;;;3.00;;
52940;SDS011;62001;53.366;6.636;2023-04-03T04:50:13;8.07;;;3.50;;
52940;SDS011;62001;53.366;6.636;2023-04-03T04:52:38;9.67;;;3.30;;
52940;SDS011;62001;53.366;6.636;2023-04-03T04:55:05;7.57;;;2.90;;
52940;SDS011;62001;53.366;6.636;2023-04-03T04:57:31;9.83;;;3.13;;
52940;SDS011;62001;53.366;6.636;2023-04-03T04:59:56;12.00;;;3.60;;
52940;SDS011;62001;53.366;6.636;2023-04-03T05:02:22;11.73;;;3.40;;
52940;SDS011;62001;53.366;6.636;2023-04-03T05:04:48;9.87;;;3.23;;
52940;SDS011;62001;53.366;6.636;2023-04-03T05:07:15;8.90;;;3.30;;
52940;SDS011;62001;53.366;6.636;2023-04-03T05:09:41;13.43;;;3.70;;
52940;SDS011;62001;53.366;6.636;2023-04-03T05:12:07;9.37;;;3.57;;
52940;SDS011;62001;53.366;6.636;2023-04-03T05:14:33;12.17;;;3.73;;
52940;SDS011;62001;53.366;6.636;2023-04-03T05:16:59;14.57;;;3.63;;
52940;SDS011;62001;53.366;6.636;2023-04-03T05:19:25;9.40;;;3.40;;
52940;SDS011;62001;53.366;6.636;2023-04-03T05:21:50;13.00;;;3.67;;
52940;SDS011;62001;53.366;6.636;2023-04-03T05:24:16;11.67;;;4.00;;
52940;SDS011;62001;53.366;6.636;2023-04-03T05:26:43;10.57;;;3.70;;
52940;SDS011;62001;53.366;6.636;2023-04-03T05:29:09;12.47;;;4.00;;
52940;SDS011;62001;53.366;6.636;2023-04-03T05:31:35;10.13;;;3.90;;
52940;SDS011;62001;53.366;6.636;2023-04-03T05:34:01;17.00;;;4.60;;
52940;SDS011;62001;53.366;6.636;2023-04-03T05:36:27;13.73;;;4.00;;
52940;SDS011;62001;53.366;6.636;2023-04-03T05:38:53;10.60;;;3.90;;
52940;SDS011;62001;53.366;6.636;2023-04-03T05:41:21;10.63;;;4.37;;
52940;SDS011;62001;53.366;6.636;2023-04-03T05:43:47;11.33;;;4.27;;
52940;SDS011;62001;53.366;6.636;2023-04-03T05:46:14;8.67;;;3.70;;
52940;SDS011;62001;53.366;6.636;2023-04-03T05:48:42;9.77;;;3.90;;
52940;SDS011;62001;53.366;6.636;2023-04-03T05:51:13;10.30;;;3.60;;
52940;SDS011;62001;53.366;6.636;2023-04-03T05:53:43;9.93;;;3.23;;
52940;SDS011;62001;53.366;6.636;2023-04-03T05:56:10;8.57;;;3.30;;
52940;SDS011;62001;53.366;6.636;2023-04-03T05:58:36;13.20;;;3.50;;
52940;SDS011;62001;53.366;6.636;2023-04-03T06:01:02;6.73;;;3.30;;
52940;SDS011;62001;53.366;6.636;2023-04-03T06:03:28;9.43;;;3.33;;
52940;SDS011;62001;53.366;6.636;2023-04-03T06:05:54;10.10;;;2.97;;
52940;SDS011;62001;53.366;6.636;2023-04-03T06:08:20;14.83;;;3.40;;
52940;SDS011;62001;53.366;6.636;2023-04-03T06:10:46;9.30;;;3.07;;
52940;SDS011;62001;53.366;6.636;2023-04-03T06:13:12;8.53;;;3.13;;
52940;SDS011;62001;53.366;6.636;2023-04-03T06:15:38;11.47;;;3.60;;
52940;SDS011;62001;53.366;6.636;2023-04-03T06:18:05;8.33;;;3.40;;
52940;SDS011;62001;53.366;6.636;2023-04-03T06:20:31;11.00;;;3.20;;
52940;SDS011;62001;53.366;6.636;2023-04-03T06:22:57;11.60;;;3.40;;
52940;SDS011;62001;53.366;6.636;2023-04-03T06:25:23;6.23;;;2.97;;
52940;SDS011;62001;53.366;6.636;2023-04-03T06:27:49;8.87;;;3.00;;
52940;SDS011;62001;53.366;6.636;2023-04-03T06:30:15;8.03;;;3.40;;
52940;SDS011;62001;53.366;6.636;2023-04-03T06:32:41;9.60;;;3.33;;
52940;SDS011;62001;53.366;6.636;2023-04-03T06:35:08;10.67;;;3.10;;
52940;SDS011;62001;53.366;6.636;2023-04-03T06:37:34;7.47;;;3.17;;
52940;SDS011;62001;53.366;6.636;2023-04-03T06:40:00;9.57;;;3.00;;
52940;SDS011;62001;53.366;6.636;2023-04-03T06:42:26;10.57;;;3.53;;
52940;SDS011;62001;53.366;6.636;2023-04-03T06:44:52;9.77;;;3.17;;
52940;SDS011;62001;53.366;6.636;2023-04-03T06:47:18;10.27;;;3.20;;
52940;SDS011;62001;53.366;6.636;2023-04-03T06:49:44;6.30;;;2.80;;
52940;SDS011;62001;53.366;6.636;2023-04-03T06:52:10;7.70;;;2.87;;
52940;SDS011;62001;53.366;6.636;2023-04-03T06:54:37;9.27;;;2.97;;
52940;SDS011;62001;53.366;6.636;2023-04-03T06:57:03;10.73;;;3.60;;
52940;SDS011;62001;53.366;6.636;2023-04-03T06:59:30;9.67;;;3.07;;
52940;SDS011;62001;53.366;6.636;2023-04-03T07:01:55;10.23;;;3.23;;
52940;SDS011;62001;53.366;6.636;2023-04-03T07:04:21;9.90;;;4.93;;
52940;SDS011;62001;53.366;6.636;2023-04-03T07:06:47;8.40;;;3.40;;
52940;SDS011;62001;53.366;6.636;2023-04-03T07:09:14;7.85;;;3.03;;
52940;SDS011;62001;53.366;6.636;2023-04-03T07:11:40;7.28;;;3.05;;
52940;SDS011;62001;53.366;6.636;2023-04-03T07:14:06;11.32;;;3.70;;
52940;SDS011;62001;53.366;6.636;2023-04-03T07:16:33;5.88;;;2.53;;
52940;SDS011;62001;53.366;6.636;2023-04-03T07:19:00;6.70;;;2.85;;
52940;SDS011;62001;53.366;6.636;2023-04-03T07:21:28;6.57;;;2.58;;
52940;SDS011;62001;53.366;6.636;2023-04-03T07:23:54;8.52;;;2.47;;
52940;SDS011;62001;53.366;6.636;2023-04-03T07:26:20;8.55;;;2.97;;
52940;SDS011;62001;53.366;6.636;2023-04-03T07:28:48;8.75;;;2.95;;
52940;SDS011;62001;53.366;6.636;2023-04-03T07:31:14;6.03;;;2.83;;
52940;SDS011;62001;53.366;6.636;2023-04-03T07:33:42;6.47;;;2.65;;
52940;SDS011;62001;53.366;6.636;2023-04-03T07:36:11;8.68;;;2.47;;
52940;SDS011;62001;53.366;6.636;2023-04-03T07:38:41;9.07;;;2.88;;
52940;SDS011;62001;53.366;6.636;2023-04-03T07:41:06;8.48;;;2.80;;
52940;SDS011;62001;53.366;6.636;2023-04-03T07:43:40;7.35;;;2.88;;
52940;SDS011;62001;53.366;6.636;2023-04-03T07:46:07;7.05;;;2.70;;
52940;SDS011;62001;53.366;6.636;2023-04-03T07:48:33;4.07;;;2.20;;
52940;SDS011;62001;53.366;6.636;2023-04-03T07:51:00;4.88;;;1.80;;
52940;SDS011;62001;53.366;6.636;2023-04-03T07:53:27;6.55;;;2.00;;
52940;SDS011;62001;53.366;6.636;2023-04-03T07:55:53;4.20;;;1.77;;
52940;SDS011;62001;53.366;6.636;2023-04-03T07:58:21;5.85;;;1.90;;
52940;SDS011;62001;53.366;6.636;2023-04-03T08:00:47;6.63;;;2.20;;
52940;SDS011;62001;53.366;6.636;2023-04-03T08:03:14;6.05;;;2.17;;
52940;SDS011;62001;53.366;6.636;2023-04-03T08:05:42;5.80;;;2.03;;
52940;SDS011;62001;53.366;6.636;2023-04-03T08:08:10;3.72;;;1.60;;
52940;SDS011;62001;53.366;6.636;2023-04-03T08:10:37;4.85;;;1.85;;
52940;SDS011;62001;53.366;6.636;2023-04-03T08:13:03;4.18;;;1.83;;
52940;SDS011;62001;53.366;6.636;2023-04-03T08:15:30;6.22;;;2.30;;
52940;SDS011;62001;53.366;6.636;2023-04-03T08:17:56;5.40;;;1.70;;
52940;SDS011;62001;53.366;6.636;2023-04-03T08:20:23;4.47;;;1.70;;
52940;SDS011;62001;53.366;6.636;2023-04-03T08:22:49;6.05;;;1.90;;
52940;SDS011;62001;53.366;6.636;2023-04-03T08:25:15;6.25;;;1.98;;
52940;SDS011;62001;53.366;6.636;2023-04-03T08:27:42;3.65;;;1.73;;
52940;SDS011;62001;53.366;6.636;2023-04-03T08:30:08;6.60;;;1.88;;
52940;SDS011;62001;53.366;6.636;2023-04-03T08:32:35;4.43;;;1.83;;
52940;SDS011;62001;53.366;6.636;2023-04-03T08:35:02;5.45;;;1.98;;
52940;SDS011;62001;53.366;6.636;2023-04-03T08:37:28;4.82;;;1.80;;
52940;SDS011;62001;53.366;6.636;2023-04-03T08:39:54;5.18;;;1.88;;
52940;SDS011;62001;53.366;6.636;2023-04-03T08:45:20;6.10;;;1.73;;
52940;SDS011;62001;53.366;6.636;2023-04-03T08:50:33;5.28;;;1.92;;
52940;SDS011;62001;53.366;6.636;2023-04-03T08:53:03;4.13;;;1.70;;
52940;SDS011;62001;53.366;6.636;2023-04-03T08:55:37;5.15;;;1.85;;
52940;SDS011;62001;53.366;6.636;2023-04-03T08:58:15;4.35;;;1.60;;
52940;SDS011;62001;53.366;6.636;2023-04-03T09:03:15;6.18;;;1.85;;
52940;SDS011;62001;53.366;6.636;2023-04-03T09:05:54;6.00;;;1.90;;
52940;SDS011;62001;53.366;6.636;2023-04-03T09:08:22;5.53;;;2.17;;
52940;SDS011;62001;53.366;6.636;2023-04-03T09:19:15;8.18;;;2.00;;
52940;SDS011;62001;53.366;6.636;2023-04-03T09:21:59;5.45;;;1.60;;
52940;SDS011;62001;53.366;6.636;2023-04-03T09:24:37;4.63;;;1.95;;
52940;SDS011;62001;53.366;6.636;2023-04-03T09:27:04;4.68;;;1.98;;
52940;SDS011;62001;53.366;6.636;2023-04-03T09:29:33;4.38;;;1.88;;
52940;SDS011;62001;53.366;6.636;2023-04-03T09:32:22;3.45;;;1.77;;
52940;SDS011;62001;53.366;6.636;2023-04-03T09:34:50;6.28;;;2.10;;
52940;SDS011;62001;53.366;6.636;2023-04-03T09:37:36;4.75;;;1.90;;
52940;SDS011;62001;53.366;6.636;2023-04-03T09:40:03;6.85;;;1.70;;
52940;SDS011;62001;53.366;6.636;2023-04-03T09:42:30;5.85;;;1.90;;
52940;SDS011;62001;53.366;6.636;2023-04-03T09:45:02;3.33;;;1.80;;
52940;SDS011;62001;53.366;6.636;2023-04-03T09:52:39;5.03;;;1.40;;
52940;SDS011;62001;53.366;6.636;2023-04-03T09:55:07;6.15;;;1.92;;
52940;SDS011;62001;53.366;6.636;2023-04-03T09:57:39;4.90;;;1.75;;
52940;SDS011;62001;53.366;6.636;2023-04-03T10:00:06;3.50;;;1.30;;
52940;SDS011;62001;53.366;6.636;2023-04-03T10:02:49;5.50;;;1.45;;
52940;SDS011;62001;53.366;6.636;2023-04-03T10:08:09;4.32;;;1.33;;
52940;SDS011;62001;53.366;6.636;2023-04-03T10:10:39;2.85;;;1.50;;
52940;SDS011;62001;53.366;6.636;2023-04-03T10:13:25;2.92;;;1.30;;
52940;SDS011;62001;53.366;6.636;2023-04-03T10:15:55;1.60;;;1.20;;
52940;SDS011;62001;53.366;6.636;2023-04-03T10:21:28;2.55;;;1.50;;
52940;SDS011;62001;53.366;6.636;2023-04-03T10:24:00;3.25;;;1.27;;
52940;SDS011;62001;53.366;6.636;2023-04-03T10:55:43;5.18;;;1.15;;
52940;SDS011;62001;53.366;6.636;2023-04-03T10:58:26;2.10;;;0.88;;
52940;SDS011;62001;53.366;6.636;2023-04-03T11:01:01;2.72;;;1.20;;
52940;SDS011;62001;53.366;6.636;2023-04-03T11:03:35;3.20;;;0.93;;
52940;SDS011;62001;53.366;6.636;2023-04-03T11:06:06;2.67;;;1.00;;
52940;SDS011;62001;53.366;6.636;2023-04-03T11:08:36;3.53;;;1.08;;
52940;SDS011;62001;53.366;6.636;2023-04-03T11:11:17;2.42;;;1.20;;
52940;SDS011;62001;53.366;6.636;2023-04-03T11:13:52;2.05;;;1.08;;
52940;SDS011;62001;53.366;6.636;2023-04-03T11:16:30;5.50;;;1.40;;
52940;SDS011;62001;53.366;6.636;2023-04-03T11:22:23;3.83;;;1.30;;
52940;SDS011;62001;53.366;6.636;2023-04-03T11:25:06;4.70;;;1.63;;
52940;SDS011;62001;53.366;6.636;2023-04-03T11:27:55;3.45;;;1.13;;
52940;SDS011;62001;53.366;6.636;2023-04-03T11:33:25;2.72;;;1.40;;
52940;SDS011;62001;53.366;6.636;2023-04-03T11:38:38;3.63;;;1.40;;
52940;SDS011;62001;53.366;6.636;2023-04-03T11:41:09;2.78;;;1.20;;
52940;SDS011;62001;53.366;6.636;2023-04-03T11:43:55;2.85;;;1.20;;
52940;SDS011;62001;53.366;6.636;2023-04-03T11:46:22;3.20;;;1.33;;
52940;SDS011;62001;53.366;6.636;2023-04-03T12:05:48;3.55;;;1.60;;
52940;SDS011;62001;53.366;6.636;2023-04-03T12:08:21;7.07;;;1.77;;
52940;SDS011;62001;53.366;6.636;2023-04-03T12:14:20;2.88;;;1.42;;
52940;SDS011;62001;53.366;6.636;2023-04-03T12:16:21;3.88;;;1.65;;
52940;SDS011;62001;53.366;6.636;2023-04-03T12:21:20;4.22;;;1.58;;
52940;SDS011;62001;53.366;6.636;2023-04-03T12:26:30;2.95;;;1.35;;
52940;SDS011;62001;53.366;6.636;2023-04-03T12:31:50;2.33;;;1.38;;
52940;SDS011;62001;53.366;6.636;2023-04-03T12:37:32;4.40;;;1.60;;
52940;SDS011;62001;53.366;6.636;2023-04-03T12:45:22;2.90;;;1.52;;
52940;SDS011;62001;53.366;6.636;2023-04-03T12:47:49;4.88;;;1.58;;
52940;SDS011;62001;53.366;6.636;2023-04-03T12:50:27;4.03;;;1.42;;
52940;SDS011;62001;53.366;6.636;2023-04-03T12:53:06;4.22;;;1.90;;
52940;SDS011;62001;53.366;6.636;2023-04-03T12:55:38;6.63;;;1.75;;
52940;SDS011;62001;53.366;6.636;2023-04-03T12:58:16;3.30;;;1.70;;
52940;SDS011;62001;53.366;6.636;2023-04-03T13:01:00;6.25;;;2.05;;
52940;SDS011;62001;53.366;6.636;2023-04-03T13:03:35;5.20;;;1.80;;
52940;SDS011;62001;53.366;6.636;2023-04-03T13:06:17;3.58;;;1.90;;
52940;SDS011;62001;53.366;6.636;2023-04-03T13:08:50;4.20;;;1.80;;
52940;SDS011;62001;53.366;6.636;2023-04-03T13:11:16;4.45;;;1.63;;
52940;SDS011;62001;53.366;6.636;2023-04-03T13:16:42;4.75;;;1.65;;
52940;SDS011;62001;53.366;6.636;2023-04-03T13:19:38;2.88;;;1.50;;
52940;SDS011;62001;53.366;6.636;2023-04-03T13:25:05;3.38;;;1.65;;
52940;SDS011;62001;53.366;6.636;2023-04-03T13:30:00;4.05;;;1.33;;
52940;SDS011;62001;53.366;6.636;2023-04-03T13:32:29;3.85;;;1.63;;
52940;SDS011;62001;53.366;6.636;2023-04-03T13:34:56;3.97;;;1.52;;
52940;SDS011;62001;53.366;6.636;2023-04-03T13:37:31;6.63;;;1.48;;
52940;SDS011;62001;53.366;6.636;2023-04-03T13:42:38;4.03;;;1.30;;
52940;SDS011;62001;53.366;6.636;2023-04-03T13:45:08;3.90;;;1.27;;
52940;SDS011;62001;53.366;6.636;2023-04-03T13:47:38;3.83;;;1.10;;
52940;SDS011;62001;53.366;6.636;2023-04-03T13:52:42;3.67;;;1.25;;
52940;SDS011;62001;53.366;6.636;2023-04-03T13:55:25;4.07;;;1.60;;
52940;SDS011;62001;53.366;6.636;2023-04-03T13:57:56;5.47;;;1.30;;
52940;SDS011;62001;53.366;6.636;2023-04-03T14:00:30;4.75;;;1.38;;
52940;SDS011;62001;53.366;6.636;2023-04-03T14:02:59;4.20;;;1.17;;
52940;SDS011;62001;53.366;6.636;2023-04-03T14:05:25;5.07;;;1.30;;
52940;SDS011;62001;53.366;6.636;2023-04-03T14:07:52;3.28;;;1.20;;
52940;SDS011;62001;53.366;6.636;2023-04-03T14:10:19;3.92;;;1.15;;
52940;SDS011;62001;53.366;6.636;2023-04-03T14:12:46;1.88;;;1.10;;
52940;SDS011;62001;53.366;6.636;2023-04-03T14:17:44;5.25;;;1.05;;
52940;SDS011;62001;53.366;6.636;2023-04-03T14:20:14;5.28;;;1.02;;
52940;SDS011;62001;53.366;6.636;2023-04-03T14:22:42;3.50;;;1.17;;
52940;SDS011;62001;53.366;6.636;2023-04-03T14:25:08;1.63;;;1.00;;
52940;SDS011;62001;53.366;6.636;2023-04-03T14:27:38;3.28;;;1.20;;
52940;SDS011;62001;53.366;6.636;2023-04-03T14:30:08;4.32;;;1.20;;
52940;SDS011;62001;53.366;6.636;2023-04-03T14:32:38;3.40;;;1.17;;
52940;SDS011;62001;53.366;6.636;2023-04-03T14:35:05;3.58;;;1.02;;
52940;SDS011;62001;53.366;6.636;2023-04-03T14:37:32;2.22;;;0.98;;
52940;SDS011;62001;53.366;6.636;2023-04-03T14:39:59;3.47;;;0.90;;
52940;SDS011;62001;53.366;6.636;2023-04-03T14:42:27;1.87;;;0.90;;
52940;SDS011;62001;53.366;6.636;2023-04-03T14:44:56;3.60;;;1.02;;
52940;SDS011;62001;53.366;6.636;2023-04-03T14:47:24;4.00;;;0.80;;
52940;SDS011;62001;53.366;6.636;2023-04-03T14:49:53;3.47;;;0.97;;
52940;SDS011;62001;53.366;6.636;2023-04-03T14:52:23;1.85;;;0.90;;
52940;SDS011;62001;53.366;6.636;2023-04-03T14:54:51;3.30;;;1.10;;
52940;SDS011;62001;53.366;6.636;2023-04-03T14:57:18;2.60;;;1.00;;
52940;SDS011;62001;53.366;6.636;2023-04-03T14:59:46;2.20;;;1.00;;
52940;SDS011;62001;53.366;6.636;2023-04-03T15:02:29;1.80;;;0.80;;
52940;SDS011;62001;53.366;6.636;2023-04-03T15:04:57;2.67;;;0.90;;
52940;SDS011;62001;53.366;6.636;2023-04-03T15:07:25;3.43;;;0.83;;
52940;SDS011;62001;53.366;6.636;2023-04-03T15:09:53;4.13;;;1.00;;
52940;SDS011;62001;53.366;6.636;2023-04-03T15:12:21;1.77;;;0.93;;
52940;SDS011;62001;53.366;6.636;2023-04-03T15:14:50;2.63;;;0.97;;
52940;SDS011;62001;53.366;6.636;2023-04-03T15:17:17;3.43;;;0.80;;
52940;SDS011;62001;53.366;6.636;2023-04-03T15:19:46;2.22;;;0.93;;
52940;SDS011;62001;53.366;6.636;2023-04-03T15:22:17;2.63;;;1.03;;
52940;SDS011;62001;53.366;6.636;2023-04-03T15:24:44;2.90;;;1.03;;
52940;SDS011;62001;53.366;6.636;2023-04-03T15:27:11;3.53;;;1.10;;
52940;SDS011;62001;53.366;6.636;2023-04-03T15:29:38;3.70;;;1.10;;
52940;SDS011;62001;53.366;6.636;2023-04-03T15:32:06;4.68;;;1.20;;
52940;SDS011;62001;53.366;6.636;2023-04-03T15:34:32;2.20;;;1.07;;
52940;SDS011;62001;53.366;6.636;2023-04-03T15:36:58;3.53;;;1.33;;
52940;SDS011;62001;53.366;6.636;2023-04-03T15:39:26;4.57;;;1.13;;
52940;SDS011;62001;53.366;6.636;2023-04-03T15:41:52;3.20;;;1.40;;
52940;SDS011;62001;53.366;6.636;2023-04-03T15:44:19;2.93;;;1.33;;
52940;SDS011;62001;53.366;6.636;2023-04-03T15:46:46;5.57;;;1.30;;
52940;SDS011;62001;53.366;6.636;2023-04-03T15:49:14;3.23;;;1.30;;
52940;SDS011;62001;53.366;6.636;2023-04-03T15:51:40;3.57;;;1.50;;
52940;SDS011;62001;53.366;6.636;2023-04-03T15:54:06;2.27;;;1.20;;
52940;SDS011;62001;53.366;6.636;2023-04-03T15:56:32;3.43;;;1.23;;
52940;SDS011;62001;53.366;6.636;2023-04-03T15:58:58;4.43;;;1.33;;
52940;SDS011;62001;53.366;6.636;2023-04-03T16:01:24;2.57;;;1.10;;
52940;SDS011;62001;53.366;6.636;2023-04-03T16:03:50;5.60;;;1.23;;
52940;SDS011;62001;53.366;6.636;2023-04-03T16:06:16;2.87;;;1.30;;
52940;SDS011;62001;53.366;6.636;2023-04-03T16:08:44;3.47;;;1.27;;
52940;SDS011;62001;53.366;6.636;2023-04-03T16:11:12;4.47;;;1.40;;
52940;SDS011;62001;53.366;6.636;2023-04-03T16:13:40;3.90;;;1.30;;
52940;SDS011;62001;53.366;6.636;2023-04-03T16:16:10;2.07;;;1.20;;
52940;SDS011;62001;53.366;6.636;2023-04-03T16:18:40;2.42;;;1.05;;
52940;SDS011;62001;53.366;6.636;2023-04-03T16:21:09;3.05;;;1.08;;
52940;SDS011;62001;53.366;6.636;2023-04-03T16:23:35;3.23;;;1.10;;
52940;SDS011;62001;53.366;6.636;2023-04-03T16:26:01;2.73;;;1.17;;
52940;SDS011;62001;53.366;6.636;2023-04-03T16:28:28;2.63;;;1.30;;
52940;SDS011;62001;53.366;6.636;2023-04-03T16:30:57;2.47;;;1.20;;
52940;SDS011;62001;53.366;6.636;2023-04-03T16:33:29;3.60;;;1.20;;
52940;SDS011;62001;53.366;6.636;2023-04-03T16:35:56;4.40;;;1.10;;
52940;SDS011;62001;53.366;6.636;2023-04-03T16:38:25;4.93;;;1.40;;
52940;SDS011;62001;53.366;6.636;2023-04-03T16:40:50;3.90;;;1.10;;
52940;SDS011;62001;53.366;6.636;2023-04-03T16:45:47;3.27;;;1.27;;
52940;SDS011;62001;53.366;6.636;2023-04-03T16:48:13;3.20;;;1.23;;
52940;SDS011;62001;53.366;6.636;2023-04-03T16:50:39;7.47;;;1.33;;
52940;SDS011;62001;53.366;6.636;2023-04-03T16:53:05;3.30;;;1.30;;
52940;SDS011;62001;53.366;6.636;2023-04-03T16:55:35;6.37;;;1.30;;
52940;SDS011;62001;53.366;6.636;2023-04-03T16:58:01;3.53;;;1.20;;
52940;SDS011;62001;53.366;6.636;2023-04-03T17:00:29;3.37;;;1.33;;
52940;SDS011;62001;53.366;6.636;2023-04-03T17:02:58;4.93;;;1.30;;